createdAt,value
2022-08-07T00:01:43.952Z,16.10
2022-08-07T00:04:09.294Z,16.06
2022-08-07T00:06:36.201Z,15.82
2022-08-07T00:09:16.336Z,15.48
2022-08-07T00:11:54.453Z,15.84
2022-08-07T00:14:30.097Z,15.69
2022-08-07T00:17:02.718Z,15.48
2022-08-07T00:20:01.604Z,15.56
2022-08-07T00:22:24.782Z,15.69
2022-08-07T00:25:11.181Z,15.94
2022-08-07T00:27:53.323Z,15.66
2022-08-07T00:30:27.526Z,15.81
2022-08-07T00:33:00.436Z,15.75
2022-08-07T00:35:30.704Z,15.81
2022-08-07T00:37:59.149Z,16.01
2022-08-07T00:40:36.606Z,15.82
2022-08-07T00:43:59.279Z,15.94
2022-08-07T00:46:02.000Z,15.79
2022-08-07T00:48:32.190Z,15.79
2022-08-07T00:51:01.239Z,15.74
2022-08-07T00:53:39.316Z,15.83
2022-08-07T00:56:15.829Z,15.62
2022-08-07T00:58:46.587Z,15.69
2022-08-07T01:01:16.117Z,15.65
2022-08-07T01:03:57.348Z,15.67
2022-08-07T01:06:29.114Z,15.60
2022-08-07T01:08:58.670Z,15.61
2022-08-07T01:12:10.185Z,15.38
2022-08-07T01:14:28.333Z,15.38
2022-08-07T01:16:57.103Z,15.52
2022-08-07T01:19:27.428Z,15.25
2022-08-07T01:22:00.023Z,14.50
2022-08-07T01:24:34.660Z,14.56
2022-08-07T01:27:03.207Z,15.01
2022-08-07T01:29:33.977Z,15.17
2022-08-07T01:32:05.506Z,15.15
2022-08-07T01:34:47.293Z,15.09
2022-08-07T01:37:17.392Z,15.00
2022-08-07T01:39:48.289Z,15.12
2022-08-07T01:42:39.657Z,15.07
2022-08-07T01:45:17.909Z,15.04
2022-08-07T01:48:21.110Z,15.10
2022-08-07T01:50:40.339Z,14.98
2022-08-07T01:53:21.143Z,15.08
2022-08-07T01:56:01.285Z,15.05
2022-08-07T01:58:34.524Z,15.09
2022-08-07T02:01:25.443Z,15.12
2022-08-07T02:04:31.071Z,15.20
2022-08-07T02:07:02.980Z,15.07
2022-08-07T02:09:43.580Z,14.86
2022-08-07T02:12:22.125Z,14.75
2022-08-07T02:15:00.960Z,14.79
2022-08-07T02:17:36.116Z,14.67
2022-08-07T02:20:09.745Z,14.56
2022-08-07T02:22:45.663Z,14.33
2022-08-07T02:25:18.266Z,14.27
2022-08-07T02:27:56.742Z,14.28
2022-08-07T02:30:24.600Z,14.45
2022-08-07T02:33:07.496Z,14.04
2022-08-07T02:36:26.974Z,14.15
2022-08-07T02:38:33.512Z,14.11
2022-08-07T02:41:04.429Z,14.17
2022-08-07T02:43:38.899Z,14.19
2022-08-07T02:46:08.982Z,14.20
2022-08-07T02:48:38.034Z,13.95
2022-08-07T02:51:41.719Z,13.88
2022-08-07T02:54:08.309Z,14.12
2022-08-07T02:56:38.642Z,14.00
2022-08-07T02:59:10.322Z,14.00
2022-08-07T03:01:40.322Z,13.92
2022-08-07T03:04:14.401Z,14.03
2022-08-07T03:06:46.177Z,13.76
2022-08-07T03:09:42.141Z,13.79
2022-08-07T03:12:08.074Z,13.89
2022-08-07T03:14:48.546Z,14.04
2022-08-07T03:17:22.163Z,13.77
2022-08-07T03:19:55.468Z,13.98
2022-08-07T03:22:29.527Z,13.96
2022-08-07T03:25:00.150Z,13.90
2022-08-07T03:27:59.305Z,13.82
2022-08-07T03:30:18.186Z,14.01
2022-08-07T03:32:58.780Z,14.02
2022-08-07T03:35:43.960Z,13.96
2022-08-07T03:38:21.072Z,13.82
2022-08-07T03:40:51.334Z,13.94
2022-08-07T03:43:26.589Z,13.72
2022-08-07T03:46:00.775Z,13.88
2022-08-07T03:48:34.285Z,13.80
2022-08-07T03:51:14.134Z,13.65
2022-08-07T03:54:05.566Z,13.68
2022-08-07T03:56:33.627Z,13.80
2022-08-07T03:59:09.534Z,13.83
2022-08-07T04:01:45.350Z,13.68
2022-08-07T04:04:18.522Z,13.94
2022-08-07T04:06:51.811Z,14.02
2022-08-07T04:09:23.276Z,14.02
2022-08-07T04:12:23.653Z,14.11
2022-08-07T04:14:46.232Z,14.08
2022-08-07T04:17:20.962Z,14.06
2022-08-07T04:19:54.163Z,14.11
2022-08-07T04:22:28.835Z,13.66
2022-08-07T04:25:01.329Z,14.02
2022-08-07T04:27:35.429Z,14.11
2022-08-07T04:30:21.007Z,14.23
2022-08-07T04:32:57.929Z,14.02
2022-08-07T04:35:34.991Z,14.11
2022-08-07T04:38:11.439Z,14.37
2022-08-07T04:40:51.617Z,14.29
2022-08-07T04:44:12.475Z,14.52
2022-08-07T04:47:04.400Z,13.76
2022-08-07T04:49:47.499Z,13.77
2022-08-07T04:53:04.160Z,13.80
2022-08-07T04:58:14.031Z,13.83
2022-08-07T05:00:07.876Z,13.94
2022-08-07T05:01:53.693Z,14.16
2022-08-07T05:04:47.282Z,14.28
2022-08-07T05:07:36.681Z,14.57
2022-08-07T05:10:16.836Z,14.56
2022-08-07T05:14:54.549Z,15.07
2022-08-07T05:16:09.616Z,15.29
2022-08-07T05:18:41.068Z,15.27
2022-08-07T05:21:12.304Z,15.33
2022-08-07T05:23:47.729Z,15.66
2022-08-07T05:26:23.910Z,15.71
2022-08-07T05:28:59.668Z,15.88
2022-08-07T05:31:38.493Z,16.03
2022-08-07T05:34:15.896Z,16.19
2022-08-07T05:36:49.064Z,16.24
2022-08-07T05:40:14.032Z,16.08
2022-08-07T05:42:34.539Z,16.17
2022-08-07T05:45:14.475Z,16.20
2022-08-07T05:48:01.242Z,16.33
2022-08-07T05:50:32.057Z,16.49
2022-08-07T05:53:01.319Z,16.55
2022-08-07T05:56:03.099Z,16.68
2022-08-07T05:58:17.220Z,16.82
2022-08-07T06:01:05.868Z,16.76
2022-08-07T06:03:53.384Z,17.05
2022-08-07T06:06:29.546Z,17.15
2022-08-07T06:09:01.353Z,17.26
2022-08-07T06:11:34.860Z,17.42
2022-08-07T06:14:11.521Z,17.51
2022-08-07T06:16:49.958Z,17.65
2022-08-07T06:19:51.906Z,17.80
2022-08-07T06:22:16.438Z,17.93
2022-08-07T06:24:58.533Z,17.79
2022-08-07T06:27:44.010Z,17.92
2022-08-07T06:30:32.267Z,18.21
2022-08-07T06:33:04.568Z,18.35
2022-08-07T06:35:45.543Z,18.52
2022-08-07T06:38:20.775Z,18.57
2022-08-07T06:40:53.236Z,18.69
2022-08-07T06:43:23.798Z,18.93
2022-08-07T06:46:12.131Z,19.05
2022-08-07T06:48:42.180Z,18.68
2022-08-07T06:51:24.556Z,19.15
2022-08-07T06:55:29.986Z,19.24
2022-08-07T06:56:55.733Z,19.20
2022-08-07T07:00:14.490Z,19.28
2022-08-07T07:02:48.581Z,19.43
2022-08-07T07:05:13.954Z,19.49
2022-08-07T07:08:06.809Z,19.39
2022-08-07T07:10:35.432Z,19.47
2022-08-07T07:13:17.289Z,19.88
2022-08-07T07:16:21.763Z,19.86
2022-08-07T07:18:52.820Z,19.88
2022-08-07T07:21:27.169Z,20.05
2022-08-07T07:24:12.601Z,20.14
2022-08-07T07:26:51.896Z,20.25
2022-08-07T07:29:56.341Z,20.36
2022-08-07T07:32:12.845Z,20.40
2022-08-07T07:34:46.676Z,20.41
2022-08-07T07:37:45.174Z,20.52
2022-08-07T07:40:14.627Z,20.75
2022-08-07T07:42:47.025Z,20.88
2022-08-07T07:45:24.547Z,20.96
2022-08-07T07:48:11.006Z,21.06
2022-08-07T07:50:40.348Z,20.91
2022-08-07T07:53:20.568Z,21.17
2022-08-07T07:55:57.907Z,21.32
2022-08-07T07:58:36.959Z,21.52
2022-08-07T08:02:01.736Z,21.56
2022-08-07T08:04:11.974Z,21.73
2022-08-07T08:06:50.913Z,21.80
2022-08-07T08:09:29.164Z,21.91
2022-08-07T08:12:02.962Z,22.01
2022-08-07T08:14:36.464Z,22.03
2022-08-07T08:17:55.709Z,22.08
2022-08-07T08:20:17.627Z,22.36
2022-08-07T08:23:09.344Z,22.13
2022-08-07T08:25:58.142Z,22.41
2022-08-07T08:28:38.692Z,22.60
2022-08-07T08:31:15.774Z,22.36
2022-08-07T08:33:49.422Z,22.61
2022-08-07T08:36:29.922Z,22.77
2022-08-07T08:39:00.849Z,22.72
2022-08-07T08:41:57.919Z,23.18
2022-08-07T08:44:29.665Z,22.55
2022-08-07T08:47:29.839Z,22.53
2022-08-07T08:50:09.872Z,22.84
2022-08-07T08:52:54.215Z,22.87
2022-08-07T08:55:54.584Z,23.40
2022-08-07T08:58:29.134Z,23.49
2022-08-07T09:01:20.195Z,23.62
2022-08-07T09:04:11.031Z,23.67
2022-08-07T09:07:04.804Z,23.83
2022-08-07T09:09:56.686Z,24.16
2022-08-07T09:13:09.471Z,24.31
2022-08-07T09:16:24.060Z,24.09
2022-08-07T09:18:47.235Z,24.22
2022-08-07T09:22:10.354Z,24.45
2022-08-07T09:24:59.285Z,24.13
2022-08-07T09:27:59.563Z,24.72
2022-08-07T09:30:34.323Z,24.66
2022-08-07T09:33:05.639Z,24.46
2022-08-07T09:36:06.342Z,24.26
2022-08-07T09:38:54.408Z,24.48
2022-08-07T09:41:21.196Z,25.09
2022-08-07T09:44:19.387Z,24.82
2022-08-07T09:47:49.910Z,25.26
2022-08-07T09:50:18.908Z,25.17
2022-08-07T09:53:00.302Z,25.42
2022-08-07T09:56:04.630Z,25.64
2022-08-07T09:58:51.053Z,25.63
2022-08-07T10:01:53.758Z,25.76
2022-08-07T10:04:28.420Z,25.58
2022-08-07T10:07:24.311Z,25.89
2022-08-07T10:10:21.470Z,26.22
2022-08-07T10:14:00.110Z,26.03
2022-08-07T10:16:59.616Z,26.26
2022-08-07T10:19:37.662Z,26.10
2022-08-07T10:22:46.949Z,26.18
2022-08-07T10:25:52.962Z,26.20
2022-08-07T10:28:51.311Z,26.44
2022-08-07T10:31:39.078Z,26.35
2022-08-07T10:47:52.912Z,26.14
2022-08-07T10:50:52.257Z,26.81
2022-08-07T10:53:44.780Z,27.92
2022-08-07T10:56:46.652Z,29.19
2022-08-07T10:59:30.488Z,28.82
2022-08-07T11:02:34.355Z,28.72
2022-08-07T11:05:20.886Z,28.31
2022-08-07T11:08:20.151Z,27.94
2022-08-07T11:10:59.834Z,28.19
2022-08-07T11:14:45.254Z,29.10
2022-08-07T11:16:37.097Z,28.13
2022-08-07T11:19:21.773Z,28.05
2022-08-07T11:22:32.353Z,27.60
2022-08-07T11:25:26.135Z,27.61
2022-08-07T11:28:15.479Z,27.73
2022-08-07T11:31:17.689Z,27.08
2022-08-07T11:34:00.356Z,27.75
2022-08-07T11:48:13.889Z,30.34
2022-08-07T11:51:41.475Z,29.58
2022-08-07T11:54:32.175Z,29.12
2022-08-07T11:58:00.273Z,28.56
2022-08-07T12:00:18.693Z,28.34
2022-08-07T12:03:45.119Z,28.19
2022-08-07T12:06:36.366Z,28.00
2022-08-07T12:09:16.694Z,27.43
2022-08-07T12:12:10.395Z,27.83
2022-08-07T12:14:41.117Z,27.37
2022-08-07T12:17:30.322Z,27.43
2022-08-07T12:20:30.307Z,28.99
2022-08-07T12:23:14.274Z,29.43
2022-08-07T12:26:00.776Z,31.43
2022-08-07T12:29:01.797Z,33.95
2022-08-07T12:32:01.659Z,32.60
2022-08-07T12:34:36.886Z,33.17
2022-08-07T12:37:08.291Z,32.77
2022-08-07T12:39:50.560Z,32.81
2022-08-07T12:42:27.943Z,31.35
2022-08-07T12:44:58.753Z,31.37
2022-08-07T12:47:30.660Z,32.14
2022-08-07T12:50:38.395Z,32.50
2022-08-07T12:54:24.449Z,35.03
2022-08-07T12:56:44.149Z,37.25
2022-08-07T12:59:22.624Z,35.06
2022-08-07T13:02:33.299Z,36.04
2022-08-07T13:06:03.893Z,36.79
2022-08-07T13:08:42.075Z,36.90
2022-08-07T13:11:16.467Z,37.41
2022-08-07T13:14:29.123Z,39.20
2022-08-07T13:17:40.013Z,37.87
2022-08-07T13:20:21.700Z,38.79
2022-08-07T13:24:04.027Z,36.50
2022-08-07T13:26:41.786Z,36.67
2022-08-07T13:29:19.102Z,36.69
2022-08-07T13:31:57.905Z,36.60
2022-08-07T13:34:48.435Z,35.20
2022-08-07T13:37:58.673Z,35.74
2022-08-07T13:40:35.014Z,36.78
2022-08-07T13:43:15.408Z,37.47
2022-08-07T13:46:11.184Z,38.26
2022-08-07T13:48:43.928Z,39.12
2022-08-07T13:52:23.152Z,38.00
2022-08-07T13:54:23.628Z,38.89
2022-08-07T13:56:59.901Z,40.30
2022-08-07T13:59:33.403Z,39.51
2022-08-07T14:02:10.220Z,37.54
2022-08-07T14:05:12.030Z,40.24
2022-08-07T14:08:01.022Z,39.37
2022-08-07T14:10:42.397Z,38.56
2022-08-07T14:13:16.605Z,39.28
2022-08-07T14:15:53.479Z,39.27
2022-08-07T14:18:44.549Z,38.93
2022-08-07T14:22:01.395Z,38.78
2022-08-07T14:24:41.421Z,38.52
2022-08-07T14:28:09.249Z,37.91
2022-08-07T14:30:09.474Z,36.96
2022-08-07T14:33:04.713Z,37.30
2022-08-07T14:35:48.499Z,35.99
2022-08-07T14:50:19.902Z,33.09
2022-08-07T14:52:50.589Z,32.63
2022-08-07T14:55:35.828Z,32.42
2022-08-07T14:58:32.683Z,31.62
2022-08-07T15:01:21.532Z,31.41
2022-08-07T15:12:25.978Z,30.54
2022-08-07T15:20:23.541Z,30.83
2022-08-07T15:27:11.443Z,30.42
2022-08-07T15:33:58.538Z,30.78
2022-08-07T15:39:15.824Z,30.31
2022-08-07T15:42:43.603Z,30.61
2022-08-07T15:48:00.845Z,30.72
2022-08-07T15:50:37.647Z,30.54
2022-08-07T15:53:54.159Z,30.58
2022-08-07T15:56:29.481Z,30.26
2022-08-07T15:59:16.557Z,29.79
2022-08-07T16:06:09.813Z,29.52
2022-08-07T16:08:42.271Z,29.16
2022-08-07T16:11:40.086Z,29.36
2022-08-07T16:14:31.543Z,29.04
2022-08-07T16:17:15.037Z,29.19
2022-08-07T16:20:07.464Z,29.72
2022-08-07T16:23:05.361Z,29.28
2022-08-07T16:25:56.115Z,29.57
2022-08-07T16:29:18.337Z,29.75
2022-08-07T16:31:51.217Z,29.92
2022-08-07T16:34:27.739Z,29.34
2022-08-07T16:38:03.369Z,29.24
2022-08-07T16:40:36.965Z,29.75
2022-08-07T16:44:06.303Z,29.90
2022-08-07T16:47:05.642Z,29.49
2022-08-07T16:50:27.448Z,29.67
2022-08-07T16:52:41.632Z,29.77
2022-08-07T16:55:52.307Z,29.92
2022-08-07T16:58:54.358Z,30.15
2022-08-07T17:01:42.464Z,28.86
2022-08-07T17:04:57.914Z,28.57
2022-08-07T17:07:51.975Z,29.47
2022-08-07T17:10:32.790Z,29.43
2022-08-07T17:13:41.465Z,29.28
2022-08-07T17:16:25.458Z,29.10
2022-08-07T17:18:52.209Z,28.99
2022-08-07T17:21:23.634Z,28.98
2022-08-07T17:24:28.744Z,28.87
2022-08-07T17:26:58.515Z,28.51
2022-08-07T17:30:14.824Z,28.16
2022-08-07T17:32:35.299Z,27.61
2022-08-07T17:35:50.032Z,27.28
2022-08-07T17:38:32.167Z,27.11
2022-08-07T17:42:01.121Z,27.45
2022-08-07T17:44:14.006Z,27.47
2022-08-07T17:46:52.534Z,27.40
2022-08-07T17:49:58.543Z,27.14
2022-08-07T17:52:36.865Z,27.17
2022-08-07T17:56:00.849Z,27.26
2022-08-07T17:59:00.745Z,26.91
2022-08-07T18:01:44.470Z,26.82
2022-08-07T18:04:34.437Z,26.69
2022-08-07T18:07:45.999Z,26.68
2022-08-07T18:10:33.138Z,26.64
2022-08-07T18:13:09.965Z,26.45
2022-08-07T18:15:55.717Z,26.43
2022-08-07T18:18:46.421Z,26.31
2022-08-07T18:21:53.498Z,26.30
2022-08-07T18:24:33.064Z,26.26
2022-08-07T18:27:20.924Z,25.57
2022-08-07T18:30:30.729Z,25.54
2022-08-07T18:33:15.404Z,25.31
2022-08-07T18:36:32.829Z,25.45
2022-08-07T18:40:05.169Z,25.37
2022-08-07T18:42:12.969Z,25.23
2022-08-07T18:45:43.561Z,25.11
2022-08-07T18:50:03.428Z,24.77
2022-08-07T18:52:34.967Z,24.61
2022-08-07T18:54:31.306Z,24.44
2022-08-07T18:57:36.982Z,24.10
2022-08-07T19:00:32.425Z,23.52
2022-08-07T19:03:36.151Z,23.65
2022-08-07T19:06:33.864Z,23.67
2022-08-07T19:09:55.857Z,23.43
2022-08-07T19:12:19.386Z,23.59
2022-08-07T19:16:03.489Z,23.29
2022-08-07T19:18:11.435Z,23.03
2022-08-07T19:21:44.088Z,23.11
2022-08-07T19:28:56.430Z,22.62
2022-08-07T19:39:57.468Z,22.61
2022-08-07T19:44:21.724Z,22.28
2022-08-07T19:47:05.788Z,22.44
2022-08-07T20:10:54.369Z,21.67
2022-08-07T20:21:52.418Z,21.48
2022-08-07T20:24:38.893Z,21.40
2022-08-07T20:35:51.659Z,21.12
2022-08-07T20:38:22.600Z,21.09
2022-08-07T20:40:53.433Z,21.02
2022-08-07T20:43:25.829Z,20.97
2022-08-07T20:46:27.061Z,20.95
2022-08-07T20:49:00.730Z,20.99
2022-08-07T20:51:36.071Z,20.81
2022-08-07T20:54:09.430Z,20.69
2022-08-07T20:56:45.903Z,20.77
2022-08-07T21:00:04.499Z,20.78
2022-08-07T21:02:38.367Z,20.11
2022-08-07T21:05:19.144Z,20.05
2022-08-07T21:08:12.586Z,20.04
2022-08-07T21:10:42.193Z,19.96
2022-08-07T21:13:14.467Z,20.05
2022-08-07T21:15:58.326Z,20.18
2022-08-07T21:18:33.978Z,20.00
2022-08-07T21:21:01.716Z,19.95
2022-08-07T21:23:49.434Z,19.82
2022-08-07T21:26:36.678Z,19.30
2022-08-07T21:29:12.859Z,19.55
2022-08-07T21:32:47.703Z,19.80
2022-08-07T21:35:02.614Z,19.87
2022-08-07T21:37:58.580Z,19.88
2022-08-07T21:40:39.080Z,19.71
2022-08-07T21:43:11.029Z,19.67
2022-08-07T21:46:08.947Z,19.68
2022-08-07T21:48:56.472Z,19.83
2022-08-07T21:51:33.731Z,19.36
2022-08-07T21:54:24.431Z,19.39
2022-08-07T21:56:56.171Z,19.02
2022-08-07T22:00:22.050Z,19.13
2022-08-07T22:03:05.771Z,19.24
2022-08-07T22:05:45.964Z,18.99
2022-08-07T22:08:19.792Z,18.72
2022-08-07T22:10:53.504Z,19.07
2022-08-07T22:13:24.339Z,19.02
2022-08-07T22:16:38.948Z,18.99
2022-08-07T22:19:23.796Z,18.81
2022-08-07T22:22:20.939Z,18.94
2022-08-07T22:25:10.877Z,19.17
2022-08-07T22:28:07.548Z,18.69
2022-08-07T22:31:06.915Z,18.77
2022-08-07T22:33:56.474Z,17.98
2022-08-07T22:36:56.234Z,18.32
2022-08-07T22:39:53.409Z,18.56
2022-08-07T22:42:31.519Z,18.26
2022-08-07T22:45:11.097Z,18.35
2022-08-07T22:47:54.614Z,18.52
2022-08-07T22:50:45.490Z,18.53
2022-08-07T22:54:08.089Z,18.35
2022-08-07T22:56:34.517Z,18.25
2022-08-07T22:59:23.867Z,18.48
2022-08-07T23:02:00.450Z,18.46
2022-08-07T23:04:33.423Z,18.14
2022-08-07T23:07:41.956Z,18.27
2022-08-07T23:10:39.751Z,18.06
2022-08-07T23:13:48.590Z,18.13
2022-08-07T23:16:54.854Z,18.19
2022-08-07T23:20:06.167Z,18.05
2022-08-07T23:22:45.313Z,17.84
2022-08-07T23:25:45.633Z,18.03
2022-08-07T23:28:21.492Z,18.03
2022-08-07T23:32:49.336Z,17.95
2022-08-07T23:34:43.016Z,17.70
2022-08-07T23:37:31.951Z,17.90
2022-08-07T23:40:27.174Z,17.55
2022-08-07T23:43:22.031Z,17.67
2022-08-07T23:46:10.509Z,17.42
2022-08-07T23:48:58.709Z,17.61
2022-08-07T23:52:59.791Z,17.59
2022-08-07T23:54:36.177Z,17.65
2022-08-07T23:57:23.512Z,17.59
